This is the latest recevied weather packets stored in our database for station/object VA2IEI-13. If no packets are shown the sender has not sent any weather packets the latest 10 day(s).
| Time | Temp. | Humidity | Pressure | Rain* | Wind** | Luminosity | Snow |
|---|---|---|---|---|---|---|---|
| 1777758026 | 7.22° C | 85% | 1013.5 hPa | 0.25 mm | - | - | - |
| 1777755674 | 7.22° C | 85% | 1013.5 hPa | 0.51 mm | - | - | - |
| 1777753256 | 7.22° C | 82% | 1013.6 hPa | 0.25 mm | - | - | - |
| 1777745468 | 10° C | 58% | 1013.6 hPa | 0 mm | - | - | - |
| 1777741217 | 10° C | 54% | 1013.8 hPa | 0 mm | - | - | - |
| 1777740068 | 10.56° C | 54% | 1013.9 hPa | 0 mm | - | - | - |
| 1777737656 | 10.56° C | 51% | 1014.3 hPa | 0 mm | - | - | - |
| 1777734616 | 10° C | 51% | 1014.8 hPa | 0 mm | - | - | - |
| 1777732873 | 8.89° C | 50% | 1015.2 hPa | 0 mm | - | - | - |
| 1777731662 | 8.33° C | 53% | 1015.3 hPa | 0 mm | - | - | - |
| 1777730449 | 8.33° C | 57% | 1015.5 hPa | 0 mm | - | - | - |
| 1777728029 | 6.11° C | 65% | 1015.5 hPa | 0 mm | - | - | - |
| 1777724463 | 4.44° C | 78% | 1015.7 hPa | 0 mm | - | - | - |
| 1777723859 | 4.44° C | 80% | 1015.8 hPa | 0 mm | - | - | - |
| 1777722067 | 3.33° C | 82% | 1015.7 hPa | 0 mm | - | - | - |
| 1777720235 | 3.33° C | 81% | 1015.6 hPa | 0 mm | - | - | - |
| 1777719043 | 3.33° C | 83% | 1015.6 hPa | 0 mm | - | - | - |
| 1777716067 | 0.56° C | 85% | 1014.8 hPa | 0 mm | - | - | - |
| 1777715463 | 0.56° C | 85% | 1014.8 hPa | 0 mm | - | - | - |
| 1777713046 | 0.56° C | 83% | 1014.6 hPa | 0 mm | - | - | - |
| 1777711838 | -0.56° C | 86% | 1014.5 hPa | 0 mm | - | - | - |
| 1777711232 | -0.56° C | 84% | 1014.6 hPa | 0 mm | - | - | - |
| 1777707608 | 1.11° C | 80% | 1014.4 hPa | 0 mm | - | - | - |
| 1777704073 | 1.67° C | 78% | 1014.5 hPa | 0 mm | - | - | - |
| 1777703468 | 2.22° C | 78% | 1014.6 hPa | 0 mm | - | - | - |
* Rain latest hour (hover to see other rain measurements)
** Current wind speed in m/s (hover to see current wind gust speed)